createdAt,value
2019-01-31T05:01:38.886Z,3.33
2019-01-31T05:04:08.667Z,4.60
2019-01-31T05:06:38.495Z,3.50
2019-01-31T05:09:08.902Z,4.20
2019-01-31T05:11:38.704Z,3.50
2019-01-31T05:14:08.341Z,3.40
2019-01-31T05:16:38.978Z,3.57
2019-01-31T05:19:08.820Z,3.93
2019-01-31T05:21:38.538Z,3.97
2019-01-31T05:24:08.378Z,3.90
2019-01-31T05:26:38.193Z,4.23
2019-01-31T05:29:09.066Z,3.60
2019-01-31T05:31:38.861Z,3.73
2019-01-31T05:34:09.798Z,3.70
2019-01-31T05:36:39.618Z,3.23
2019-01-31T05:39:09.705Z,3.40
2019-01-31T05:41:40.514Z,4.60
2019-01-31T05:44:10.227Z,3.70
2019-01-31T05:46:40.213Z,4.00
2019-01-31T05:49:09.938Z,4.03
2019-01-31T05:51:39.678Z,4.10
2019-01-31T05:54:09.589Z,3.67
2019-01-31T05:56:39.266Z,4.10
2019-01-31T05:59:09.920Z,3.93
2019-01-31T06:01:39.611Z,4.90
2019-01-31T06:04:09.421Z,8.80
2019-01-31T06:06:39.290Z,10.73
2019-01-31T06:09:09.762Z,10.27
2019-01-31T06:11:39.855Z,11.23
2019-01-31T06:14:11.379Z,11.90
2019-01-31T06:16:41.139Z,10.00
2019-01-31T06:19:10.994Z,12.60
2019-01-31T06:21:40.628Z,12.07
2019-01-31T06:24:10.422Z,12.40
2019-01-31T06:26:40.224Z,15.23
2019-01-31T06:29:11.052Z,14.40
2019-01-31T06:31:40.859Z,15.57
2019-01-31T06:34:12.287Z,16.30
2019-01-31T06:36:42.023Z,16.70
2019-01-31T06:39:11.819Z,14.97
2019-01-31T06:41:41.622Z,15.47
2019-01-31T06:44:11.414Z,16.40
2019-01-31T06:46:41.248Z,14.10
2019-01-31T06:49:11.051Z,15.50
2019-01-31T06:51:40.975Z,14.17
2019-01-31T06:54:10.618Z,13.63
2019-01-31T06:56:40.486Z,12.30
2019-01-31T06:59:10.306Z,12.47
2019-01-31T07:01:41.105Z,11.67
2019-01-31T07:04:11.183Z,11.63
2019-01-31T07:06:40.861Z,10.80
2019-01-31T07:09:11.974Z,9.60
2019-01-31T07:11:41.916Z,11.10
2019-01-31T07:14:11.744Z,10.33
2019-01-31T07:16:41.426Z,9.30
2019-01-31T07:19:11.377Z,9.80
2019-01-31T07:21:41.118Z,8.80
2019-01-31T07:24:10.866Z,10.03
2019-01-31T07:26:41.574Z,9.63
2019-01-31T07:29:11.430Z,8.80
2019-01-31T07:31:41.318Z,8.90
2019-01-31T07:34:11.041Z,8.27
2019-01-31T07:36:40.740Z,8.13
2019-01-31T07:39:10.969Z,10.03
2019-01-31T07:41:41.727Z,8.47
2019-01-31T07:44:11.666Z,8.40
2019-01-31T07:46:42.325Z,8.03
2019-01-31T07:49:13.783Z,7.93
2019-01-31T07:51:45.318Z,7.67
2019-01-31T07:54:15.085Z,7.60
2019-01-31T07:56:46.877Z,7.90
2019-01-31T07:59:16.760Z,8.00
2019-01-31T08:01:46.498Z,7.43
2019-01-31T08:04:16.228Z,7.93
2019-01-31T08:06:46.052Z,7.47
2019-01-31T08:09:15.814Z,6.73
2019-01-31T08:11:52.782Z,7.03
2019-01-31T08:14:20.658Z,6.83
2019-01-31T08:16:50.314Z,7.33
2019-01-31T08:19:21.837Z,6.50
2019-01-31T08:21:51.531Z,7.77
2019-01-31T08:24:21.372Z,7.40
2019-01-31T08:26:51.197Z,7.57
2019-01-31T08:29:21.922Z,6.10
2019-01-31T08:31:51.777Z,6.90
2019-01-31T08:34:24.155Z,7.10
2019-01-31T08:36:53.934Z,7.37
2019-01-31T08:39:23.738Z,6.60
2019-01-31T08:42:03.239Z,6.50
2019-01-31T08:44:24.837Z,6.03
2019-01-31T08:46:54.577Z,6.07
2019-01-31T08:49:24.392Z,6.40
2019-01-31T08:51:54.321Z,5.73
2019-01-31T08:54:25.255Z,6.00
2019-01-31T08:56:54.890Z,6.00
2019-01-31T08:59:24.674Z,6.70
2019-01-31T09:01:54.542Z,5.97
2019-01-31T09:04:24.378Z,6.40
2019-01-31T09:06:54.208Z,5.90
2019-01-31T09:09:25.022Z,5.93
2019-01-31T09:11:55.781Z,7.27
2019-01-31T09:14:26.675Z,7.63
2019-01-31T09:16:58.106Z,6.03
2019-01-31T09:19:27.875Z,6.40
2019-01-31T09:22:22.148Z,6.87
2019-01-31T09:25:02.155Z,6.97
2019-01-31T09:28:14.009Z,5.90
2019-01-31T09:31:26.498Z,6.70
2019-01-31T09:34:42.088Z,5.40
2019-01-31T09:38:10.899Z,7.30
2019-01-31T09:41:15.571Z,7.27
2019-01-31T09:44:28.950Z,6.70
2019-01-31T09:47:46.129Z,6.37
2019-01-31T09:50:52.729Z,6.67
2019-01-31T09:54:13.952Z,6.90
2019-01-31T09:57:35.402Z,6.43
2019-01-31T10:00:46.963Z,6.00
2019-01-31T10:04:12.690Z,6.50
2019-01-31T10:07:22.450Z,7.47
2019-01-31T10:09:57.143Z,6.10
2019-01-31T10:13:02.778Z,6.97
2019-01-31T10:16:07.564Z,5.73
2019-01-31T10:19:18.048Z,6.20
2019-01-31T10:22:18.959Z,6.03
2019-01-31T10:25:39.287Z,6.43
2019-01-31T10:28:45.402Z,6.63
2019-01-31T10:31:57.374Z,6.33
2019-01-31T10:34:54.865Z,6.20
2019-01-31T10:38:04.223Z,6.80
2019-01-31T10:41:23.150Z,6.50
2019-01-31T10:44:27.600Z,7.10
2019-01-31T10:47:36.810Z,5.83
2019-01-31T10:50:58.787Z,7.00
2019-01-31T10:53:54.071Z,7.70
2019-01-31T10:57:04.721Z,6.00
2019-01-31T11:00:06.928Z,6.80
2019-01-31T11:03:11.212Z,6.80
2019-01-31T11:06:06.511Z,6.70
2019-01-31T11:08:57.245Z,6.57
2019-01-31T11:11:38.809Z,5.80
2019-01-31T11:14:42.557Z,6.13
2019-01-31T11:17:51.894Z,6.43
2019-01-31T11:20:47.965Z,5.80
2019-01-31T11:24:01.662Z,6.47
2019-01-31T11:26:53.133Z,6.37
2019-01-31T11:30:17.743Z,6.20
2019-01-31T11:33:30.397Z,4.90
2019-01-31T11:36:31.000Z,5.63
2019-01-31T11:39:46.078Z,5.70
2019-01-31T11:42:46.430Z,5.60
2019-01-31T11:45:55.002Z,5.50
2019-01-31T11:49:20.588Z,6.13
2019-01-31T11:52:43.252Z,5.83
2019-01-31T11:55:58.838Z,5.50
2019-01-31T11:59:03.766Z,6.17
2019-01-31T12:01:34.178Z,6.77
2019-01-31T12:04:17.779Z,5.37
2019-01-31T12:06:47.582Z,5.73
2019-01-31T12:09:19.816Z,5.00
2019-01-31T12:11:50.973Z,6.87
2019-01-31T12:14:22.160Z,6.20
2019-01-31T12:16:52.799Z,6.90
2019-01-31T12:19:23.637Z,5.87
2019-01-31T12:21:53.472Z,5.33
2019-01-31T12:24:23.419Z,4.70
2019-01-31T12:26:53.795Z,5.50
2019-01-31T12:29:23.608Z,5.70
2019-01-31T12:31:55.347Z,5.43
2019-01-31T12:34:25.161Z,6.00
2019-01-31T12:36:54.888Z,6.87
2019-01-31T12:39:24.714Z,5.47
2019-01-31T12:41:54.505Z,4.97
2019-01-31T12:44:25.246Z,5.10
2019-01-31T12:46:55.004Z,5.80
2019-01-31T12:49:25.753Z,5.33
2019-01-31T12:51:56.492Z,5.37
2019-01-31T12:54:26.321Z,5.93
2019-01-31T12:56:57.824Z,5.07
2019-01-31T12:59:27.529Z,6.23
2019-01-31T13:01:57.325Z,5.53
2019-01-31T13:04:27.936Z,5.70
2019-01-31T13:06:57.839Z,6.30
2019-01-31T13:09:28.386Z,4.70
2019-01-31T13:11:59.445Z,6.47
2019-01-31T13:14:29.248Z,4.97
2019-01-31T13:16:59.033Z,5.43
2019-01-31T13:19:31.575Z,5.70
2019-01-31T13:22:01.499Z,5.67
2019-01-31T13:24:31.163Z,5.07
2019-01-31T13:27:00.940Z,4.40
2019-01-31T13:29:30.733Z,4.63
2019-01-31T13:32:01.530Z,4.60
2019-01-31T13:34:31.380Z,5.13
2019-01-31T13:37:03.934Z,4.73
2019-01-31T13:39:34.682Z,5.07
2019-01-31T13:42:04.711Z,4.60
2019-01-31T13:44:34.514Z,4.70
2019-01-31T13:47:04.793Z,5.13
2019-01-31T13:49:34.521Z,4.33
2019-01-31T13:52:04.334Z,4.70
2019-01-31T13:54:34.545Z,4.90
2019-01-31T13:57:04.389Z,5.10
2019-01-31T13:59:35.828Z,4.70
2019-01-31T14:02:09.365Z,4.73
2019-01-31T14:04:39.234Z,4.80
2019-01-31T14:07:09.006Z,4.60
2019-01-31T14:09:38.793Z,5.30
2019-01-31T14:12:09.990Z,5.07
2019-01-31T14:14:39.975Z,5.10
2019-01-31T14:17:12.502Z,4.77
2019-01-31T14:19:42.294Z,7.10
2019-01-31T14:22:12.118Z,4.90
2019-01-31T14:24:43.797Z,4.40
2019-01-31T14:27:13.435Z,4.67
2019-01-31T14:29:43.190Z,4.60
2019-01-31T14:32:15.652Z,4.40
2019-01-31T14:34:45.568Z,4.20
2019-01-31T14:37:16.333Z,4.17
2019-01-31T14:39:46.090Z,3.50
2019-01-31T14:42:15.909Z,3.63
2019-01-31T14:44:45.593Z,4.43
2019-01-31T14:47:15.448Z,4.57
2019-01-31T14:49:45.237Z,4.13
2019-01-31T14:52:16.374Z,4.70
2019-01-31T14:54:46.201Z,4.03
2019-01-31T14:57:15.993Z,4.40
2019-01-31T14:59:45.604Z,3.83
2019-01-31T15:02:15.432Z,4.30
2019-01-31T15:04:46.931Z,3.93
2019-01-31T15:07:16.850Z,3.97
2019-01-31T15:09:46.617Z,4.43
2019-01-31T15:12:19.778Z,4.30
2019-01-31T15:14:49.613Z,4.63
2019-01-31T15:17:21.173Z,3.90
2019-01-31T15:19:52.555Z,4.23
2019-01-31T15:22:22.308Z,3.70
2019-01-31T15:24:52.104Z,3.33
2019-01-31T15:27:21.918Z,3.97
2019-01-31T15:29:51.737Z,4.80
2019-01-31T15:32:23.206Z,5.23
2019-01-31T15:34:52.990Z,4.70
2019-01-31T15:37:25.505Z,5.00
2019-01-31T15:39:55.238Z,4.10
2019-01-31T15:42:24.984Z,4.80
2019-01-31T15:44:55.625Z,5.40
2019-01-31T15:47:25.394Z,4.83
2019-01-31T15:49:55.256Z,5.70
2019-01-31T15:52:25.011Z,5.93
2019-01-31T15:54:54.879Z,7.10
2019-01-31T15:57:26.440Z,6.27
2019-01-31T15:59:57.221Z,8.20
2019-01-31T16:02:27.074Z,7.30
2019-01-31T16:04:56.823Z,7.03
2019-01-31T16:07:26.842Z,8.20
2019-01-31T16:09:56.622Z,7.37
2019-01-31T16:12:26.537Z,8.27
2019-01-31T16:14:56.430Z,7.03
2019-01-31T16:17:26.697Z,6.77
2019-01-31T16:19:58.009Z,6.90
2019-01-31T16:22:27.816Z,6.73
2019-01-31T16:24:59.285Z,6.10
2019-01-31T16:27:29.332Z,7.13
2019-01-31T16:29:59.088Z,5.83
2019-01-31T16:32:28.851Z,5.90
2019-01-31T16:34:58.721Z,5.20
2019-01-31T16:37:30.375Z,6.90
2019-01-31T16:40:01.953Z,6.57
2019-01-31T16:42:32.001Z,6.20
2019-01-31T16:45:06.929Z,5.30
2019-01-31T16:47:33.245Z,6.67
2019-01-31T16:50:03.089Z,5.50
2019-01-31T16:52:36.218Z,5.77
2019-01-31T16:55:07.124Z,5.47
2019-01-31T16:57:36.848Z,6.17
2019-01-31T17:00:11.436Z,5.47
2019-01-31T17:02:41.306Z,5.40
2019-01-31T17:05:13.284Z,5.20
2019-01-31T17:07:43.102Z,5.03
2019-01-31T17:10:13.050Z,4.97
2019-01-31T17:12:45.290Z,5.00
2019-01-31T17:15:18.242Z,3.97
2019-01-31T17:17:48.729Z,5.60
2019-01-31T17:20:24.130Z,4.73
2019-01-31T17:22:53.977Z,4.53
2019-01-31T17:25:23.978Z,3.90
2019-01-31T17:27:53.769Z,4.70
2019-01-31T17:30:25.477Z,4.70
2019-01-31T17:32:55.422Z,3.53
2019-01-31T17:35:25.177Z,4.07
2019-01-31T17:37:54.989Z,4.13
2019-01-31T17:40:31.621Z,3.83
2019-01-31T17:43:01.508Z,3.60
2019-01-31T17:45:32.947Z,3.63
2019-01-31T17:48:02.821Z,3.60
2019-01-31T17:50:32.529Z,4.20
2019-01-31T17:53:02.314Z,3.80
2019-01-31T17:55:34.039Z,3.83
2019-01-31T17:58:04.138Z,4.33
2019-01-31T18:00:50.514Z,4.30
2019-01-31T18:03:20.337Z,4.37
2019-01-31T18:05:52.763Z,3.70
2019-01-31T18:08:22.688Z,4.00
2019-01-31T18:10:52.517Z,3.67
2019-01-31T18:13:22.198Z,3.53
2019-01-31T18:15:52.247Z,3.80
2019-01-31T18:18:22.063Z,4.17
2019-01-31T18:20:53.546Z,3.50
2019-01-31T18:23:24.249Z,3.73
2019-01-31T18:25:58.231Z,3.90
2019-01-31T18:28:28.067Z,4.23
2019-01-31T18:30:57.903Z,3.50
2019-01-31T18:33:29.739Z,3.80
2019-01-31T18:35:59.671Z,3.07
2019-01-31T18:38:30.493Z,3.70
2019-01-31T18:41:00.180Z,3.40
2019-01-31T18:43:29.985Z,3.30
2019-01-31T18:45:59.690Z,3.17
2019-01-31T18:48:29.530Z,4.30
2019-01-31T18:50:59.375Z,3.40
2019-01-31T18:53:29.217Z,3.07
2019-01-31T18:55:59.166Z,3.47
2019-01-31T18:58:29.491Z,3.67
2019-01-31T19:00:59.270Z,3.73
2019-01-31T19:03:29.140Z,3.67
2019-01-31T19:05:58.806Z,3.13
2019-01-31T19:08:28.572Z,3.77
2019-01-31T19:10:58.447Z,3.20
2019-01-31T19:13:29.934Z,3.13
2019-01-31T19:16:05.430Z,3.07
2019-01-31T19:18:32.585Z,3.00
2019-01-31T19:21:04.069Z,3.10
2019-01-31T19:23:33.817Z,3.70
2019-01-31T19:26:04.994Z,2.70
2019-01-31T19:28:34.730Z,3.27
2019-01-31T19:31:04.602Z,2.83
2019-01-31T19:33:36.095Z,3.10
2019-01-31T19:36:06.072Z,3.27
2019-01-31T19:38:37.209Z,3.17
2019-01-31T19:41:09.737Z,3.00
2019-01-31T19:43:39.601Z,2.80
2019-01-31T19:46:16.649Z,3.20
2019-01-31T19:48:41.856Z,3.20
2019-01-31T19:51:11.894Z,2.77
2019-01-31T19:53:41.703Z,2.60
2019-01-31T19:56:11.620Z,2.70
2019-01-31T19:58:42.771Z,3.40
2019-01-31T20:01:12.729Z,2.87
2019-01-31T20:03:42.750Z,2.70
2019-01-31T20:06:13.641Z,2.80
2019-01-31T20:08:43.387Z,2.90
2019-01-31T20:11:14.244Z,3.03
2019-01-31T20:13:44.046Z,2.37
2019-01-31T20:16:16.298Z,2.60
2019-01-31T20:18:46.901Z,3.17
2019-01-31T20:21:17.514Z,2.53
2019-01-31T20:23:47.517Z,2.40
2019-01-31T20:26:18.250Z,2.57
2019-01-31T20:28:48.038Z,2.30
2019-01-31T20:31:18.002Z,2.63
2019-01-31T20:33:48.645Z,2.53
2019-01-31T20:36:18.430Z,2.50
2019-01-31T20:38:48.070Z,2.67
2019-01-31T20:41:19.655Z,2.70
2019-01-31T20:43:49.487Z,3.20
2019-01-31T20:46:20.410Z,2.37
2019-01-31T20:48:50.335Z,2.50
2019-01-31T20:51:20.233Z,2.77
2019-01-31T20:53:49.909Z,2.70
2019-01-31T20:56:20.665Z,2.57
2019-01-31T20:58:50.527Z,2.43
2019-01-31T21:01:20.257Z,2.70
2019-01-31T21:03:49.993Z,2.70
2019-01-31T21:06:20.805Z,2.50
2019-01-31T21:08:50.612Z,2.70
2019-01-31T21:11:22.184Z,2.70
2019-01-31T21:13:51.867Z,2.30
2019-01-31T21:16:21.614Z,2.40
2019-01-31T21:18:51.334Z,2.80
2019-01-31T21:21:21.060Z,2.93
2019-01-31T21:23:50.854Z,2.30
2019-01-31T21:26:24.667Z,2.60
2019-01-31T21:28:53.706Z,2.10
2019-01-31T21:31:24.461Z,2.77
2019-01-31T21:33:54.277Z,2.40
2019-01-31T21:36:24.946Z,2.13
2019-01-31T21:38:54.746Z,2.20
2019-01-31T21:41:24.747Z,2.50
2019-01-31T21:43:54.546Z,2.50
2019-01-31T21:46:24.412Z,2.57
2019-01-31T21:48:55.146Z,2.10
2019-01-31T21:51:25.073Z,2.33
2019-01-31T21:53:54.904Z,2.23
2019-01-31T21:56:24.637Z,2.63
2019-01-31T21:58:54.498Z,2.30
2019-01-31T22:01:24.261Z,2.73
2019-01-31T22:03:53.911Z,2.50
2019-01-31T22:06:23.678Z,2.20
2019-01-31T22:08:55.216Z,2.10
2019-01-31T22:11:24.846Z,1.93
2019-01-31T22:13:54.627Z,2.53
2019-01-31T22:16:25.873Z,2.63
2019-01-31T22:18:55.888Z,2.53
2019-01-31T22:21:25.752Z,2.00
2019-01-31T22:23:55.507Z,2.07
2019-01-31T22:26:27.114Z,2.30
2019-01-31T22:28:56.929Z,2.03
2019-01-31T22:31:27.692Z,1.90
2019-01-31T22:33:57.529Z,2.27
2019-01-31T22:36:27.423Z,2.50
2019-01-31T22:38:57.366Z,2.57
2019-01-31T22:41:28.972Z,2.27
2019-01-31T22:43:58.794Z,2.50
2019-01-31T22:46:29.629Z,2.60
2019-01-31T22:49:00.698Z,2.50
2019-01-31T22:51:30.494Z,2.73
2019-01-31T22:54:00.346Z,2.60
2019-01-31T22:56:31.621Z,2.73
2019-01-31T22:59:01.448Z,2.77
2019-01-31T23:01:52.425Z,2.60
2019-01-31T23:04:22.238Z,3.07
2019-01-31T23:06:52.105Z,3.13
2019-01-31T23:09:21.873Z,3.07
2019-01-31T23:11:52.664Z,4.27
2019-01-31T23:14:22.539Z,3.10
2019-01-31T23:16:52.259Z,3.33
